sensor_id;sensor_type;location;lat;lon;timestamp;temperature;humidity
32502;DHT22;18952;52.516;13.460;2024-02-14T00:00:21;5.10;68.90
32502;DHT22;18952;52.516;13.460;2024-02-14T00:02:49;5.20;68.80
32502;DHT22;18952;52.516;13.460;2024-02-14T00:05:18;5.20;68.40
32502;DHT22;18952;52.516;13.460;2024-02-14T00:07:50;5.20;68.50
32502;DHT22;18952;52.516;13.460;2024-02-14T00:10:18;5.20;68.30
32502;DHT22;18952;52.516;13.460;2024-02-14T00:12:45;5.30;68.20
32502;DHT22;18952;52.516;13.460;2024-02-14T00:15:12;5.20;68.80
32502;DHT22;18952;52.516;13.460;2024-02-14T00:17:41;5.20;68.40
32502;DHT22;18952;52.516;13.460;2024-02-14T00:20:10;5.10;68.90
32502;DHT22;18952;52.516;13.460;2024-02-14T00:22:47;5.10;68.80
32502;DHT22;18952;52.516;13.460;2024-02-14T00:25:22;5.00;68.60
32502;DHT22;18952;52.516;13.460;2024-02-14T00:27:50;5.00;68.50
32502;DHT22;18952;52.516;13.460;2024-02-14T00:30:22;5.00;68.60
32502;DHT22;18952;52.516;13.460;2024-02-14T00:32:50;5.00;68.80
32502;DHT22;18952;52.516;13.460;2024-02-14T00:35:19;5.00;68.80
32502;DHT22;18952;52.516;13.460;2024-02-14T00:37:48;4.90;68.70
32502;DHT22;18952;52.516;13.460;2024-02-14T00:40:17;5.00;68.70
32502;DHT22;18952;52.516;13.460;2024-02-14T00:42:45;5.00;68.80
32502;DHT22;18952;52.516;13.460;2024-02-14T00:45:17;4.90;68.90
32502;DHT22;18952;52.516;13.460;2024-02-14T00:47:49;4.90;69.10
32502;DHT22;18952;52.516;13.460;2024-02-14T00:50:22;4.90;68.90
32502;DHT22;18952;52.516;13.460;2024-02-14T00:52:49;5.00;68.80
32502;DHT22;18952;52.516;13.460;2024-02-14T00:55:34;5.00;68.70
32502;DHT22;18952;52.516;13.460;2024-02-14T00:58:05;4.90;69.00
32502;DHT22;18952;52.516;13.460;2024-02-14T01:00:31;4.90;69.20
32502;DHT22;18952;52.516;13.460;2024-02-14T01:03:03;4.90;69.10
32502;DHT22;18952;52.516;13.460;2024-02-14T01:05:33;4.90;69.20
32502;DHT22;18952;52.516;13.460;2024-02-14T01:08:03;4.90;69.00
32502;DHT22;18952;52.516;13.460;2024-02-14T01:10:33;4.90;69.00
32502;DHT22;18952;52.516;13.460;2024-02-14T01:13:02;4.90;69.20
32502;DHT22;18952;52.516;13.460;2024-02-14T01:15:30;4.80;69.10
32502;DHT22;18952;52.516;13.460;2024-02-14T01:17:57;4.90;69.10
32502;DHT22;18952;52.516;13.460;2024-02-14T01:20:29;4.80;69.10
32502;DHT22;18952;52.516;13.460;2024-02-14T01:22:58;4.80;69.00
32502;DHT22;18952;52.516;13.460;2024-02-14T01:25:26;4.80;69.20
32502;DHT22;18952;52.516;13.460;2024-02-14T01:27:54;4.90;69.40
32502;DHT22;18952;52.516;13.460;2024-02-14T01:30:24;4.90;69.10
32502;DHT22;18952;52.516;13.460;2024-02-14T01:32:54;4.90;69.10
32502;DHT22;18952;52.516;13.460;2024-02-14T01:35:21;4.90;69.10
32502;DHT22;18952;52.516;13.460;2024-02-14T01:37:49;4.90;68.90
32502;DHT22;18952;52.516;13.460;2024-02-14T01:40:16;4.80;68.90
32502;DHT22;18952;52.516;13.460;2024-02-14T01:42:43;4.80;69.00
32502;DHT22;18952;52.516;13.460;2024-02-14T01:45:09;4.90;69.00
32502;DHT22;18952;52.516;13.460;2024-02-14T01:47:38;4.90;68.90
32502;DHT22;18952;52.516;13.460;2024-02-14T01:50:09;4.90;68.90
32502;DHT22;18952;52.516;13.460;2024-02-14T01:52:43;4.80;69.00
32502;DHT22;18952;52.516;13.460;2024-02-14T01:55:12;4.90;68.90
32502;DHT22;18952;52.516;13.460;2024-02-14T01:57:44;4.90;69.00
32502;DHT22;18952;52.516;13.460;2024-02-14T02:00:11;4.90;69.00
32502;DHT22;18952;52.516;13.460;2024-02-14T02:02:40;4.90;68.80
32502;DHT22;18952;52.516;13.460;2024-02-14T02:05:07;4.90;68.90
32502;DHT22;18952;52.516;13.460;2024-02-14T02:07:35;4.80;69.00
32502;DHT22;18952;52.516;13.460;2024-02-14T02:10:02;4.90;69.00
32502;DHT22;18952;52.516;13.460;2024-02-14T02:12:30;4.90;69.10
32502;DHT22;18952;52.516;13.460;2024-02-14T02:14:58;4.90;68.80
32502;DHT22;18952;52.516;13.460;2024-02-14T02:17:30;4.90;68.90
32502;DHT22;18952;52.516;13.460;2024-02-14T02:19:57;4.90;68.90
32502;DHT22;18952;52.516;13.460;2024-02-14T02:22:24;4.90;68.90
32502;DHT22;18952;52.516;13.460;2024-02-14T02:24:51;4.80;69.00
32502;DHT22;18952;52.516;13.460;2024-02-14T02:27:17;4.80;69.10
32502;DHT22;18952;52.516;13.460;2024-02-14T02:29:45;4.80;68.80
32502;DHT22;18952;52.516;13.460;2024-02-14T02:32:12;4.90;68.90
32502;DHT22;18952;52.516;13.460;2024-02-14T02:34:39;4.80;69.00
32502;DHT22;18952;52.516;13.460;2024-02-14T02:37:07;4.80;69.10
32502;DHT22;18952;52.516;13.460;2024-02-14T02:39:34;4.80;69.10
32502;DHT22;18952;52.516;13.460;2024-02-14T02:42:01;4.80;68.80
32502;DHT22;18952;52.516;13.460;2024-02-14T02:44:31;4.80;68.90
32502;DHT22;18952;52.516;13.460;2024-02-14T02:46:59;4.80;69.00
32502;DHT22;18952;52.516;13.460;2024-02-14T02:49:25;4.80;68.90
32502;DHT22;18952;52.516;13.460;2024-02-14T02:51:55;4.70;69.10
32502;DHT22;18952;52.516;13.460;2024-02-14T02:54:22;4.70;69.40
32502;DHT22;18952;52.516;13.460;2024-02-14T02:56:50;4.60;69.40
32502;DHT22;18952;52.516;13.460;2024-02-14T02:59:16;4.70;69.50
32502;DHT22;18952;52.516;13.460;2024-02-14T03:01:44;4.70;69.40
32502;DHT22;18952;52.516;13.460;2024-02-14T03:04:12;4.70;69.50
32502;DHT22;18952;52.516;13.460;2024-02-14T03:06:40;4.70;69.20
32502;DHT22;18952;52.516;13.460;2024-02-14T03:09:10;4.60;69.70
32502;DHT22;18952;52.516;13.460;2024-02-14T03:11:42;4.60;69.60
32502;DHT22;18952;52.516;13.460;2024-02-14T03:14:12;4.70;69.50
32502;DHT22;18952;52.516;13.460;2024-02-14T03:16:39;4.70;69.60
32502;DHT22;18952;52.516;13.460;2024-02-14T03:19:07;4.70;69.50
32502;DHT22;18952;52.516;13.460;2024-02-14T03:21:34;4.70;69.30
32502;DHT22;18952;52.516;13.460;2024-02-14T03:24:02;4.70;69.40
32502;DHT22;18952;52.516;13.460;2024-02-14T03:26:29;4.70;69.40
32502;DHT22;18952;52.516;13.460;2024-02-14T03:28:59;4.60;69.40
32502;DHT22;18952;52.516;13.460;2024-02-14T03:31:26;4.60;69.60
32502;DHT22;18952;52.516;13.460;2024-02-14T03:33:54;4.60;69.50
32502;DHT22;18952;52.516;13.460;2024-02-14T03:36:21;4.60;69.70
32502;DHT22;18952;52.516;13.460;2024-02-14T03:38:48;4.70;69.50
32502;DHT22;18952;52.516;13.460;2024-02-14T03:41:15;4.70;69.60
32502;DHT22;18952;52.516;13.460;2024-02-14T03:43:42;4.70;69.50
32502;DHT22;18952;52.516;13.460;2024-02-14T03:46:10;4.70;69.50
32502;DHT22;18952;52.516;13.460;2024-02-14T03:48:36;4.70;69.30
32502;DHT22;18952;52.516;13.460;2024-02-14T03:51:04;4.70;69.10
32502;DHT22;18952;52.516;13.460;2024-02-14T03:53:34;4.70;69.00
32502;DHT22;18952;52.516;13.460;2024-02-14T03:56:00;4.80;69.70
32502;DHT22;18952;52.516;13.460;2024-02-14T03:58:27;4.70;69.30
32502;DHT22;18952;52.516;13.460;2024-02-14T04:00:57;4.70;69.30
32502;DHT22;18952;52.516;13.460;2024-02-14T04:03:24;4.70;69.20
32502;DHT22;18952;52.516;13.460;2024-02-14T04:05:53;4.70;69.30
32502;DHT22;18952;52.516;13.460;2024-02-14T04:08:20;4.80;69.10
32502;DHT22;18952;52.516;13.460;2024-02-14T04:10:48;4.70;68.90
32502;DHT22;18952;52.516;13.460;2024-02-14T04:13:16;4.70;69.30
32502;DHT22;18952;52.516;13.460;2024-02-14T04:15:44;4.70;69.40
32502;DHT22;18952;52.516;13.460;2024-02-14T04:18:12;4.80;69.20
32502;DHT22;18952;52.516;13.460;2024-02-14T04:20:41;4.80;69.30
32502;DHT22;18952;52.516;13.460;2024-02-14T04:23:09;4.80;69.10
32502;DHT22;18952;52.516;13.460;2024-02-14T04:25:37;4.70;69.40
32502;DHT22;18952;52.516;13.460;2024-02-14T04:28:07;4.70;69.70
32502;DHT22;18952;52.516;13.460;2024-02-14T04:30:35;4.60;69.80
32502;DHT22;18952;52.516;13.460;2024-02-14T04:33:02;4.60;69.50
32502;DHT22;18952;52.516;13.460;2024-02-14T04:35:31;4.60;69.60
32502;DHT22;18952;52.516;13.460;2024-02-14T04:37:58;4.70;69.50
32502;DHT22;18952;52.516;13.460;2024-02-14T04:40:26;4.70;69.60
32502;DHT22;18952;52.516;13.460;2024-02-14T04:42:55;4.70;69.30
32502;DHT22;18952;52.516;13.460;2024-02-14T04:45:22;4.70;69.50
32502;DHT22;18952;52.516;13.460;2024-02-14T04:47:49;4.70;69.60
32502;DHT22;18952;52.516;13.460;2024-02-14T04:50:18;4.70;69.50
32502;DHT22;18952;52.516;13.460;2024-02-14T04:52:45;4.80;69.30
32502;DHT22;18952;52.516;13.460;2024-02-14T04:55:13;4.80;69.30
32502;DHT22;18952;52.516;13.460;2024-02-14T04:57:41;4.90;69.20
32502;DHT22;18952;52.516;13.460;2024-02-14T05:00:09;4.90;68.80
32502;DHT22;18952;52.516;13.460;2024-02-14T05:02:36;4.90;68.80
32502;DHT22;18952;52.516;13.460;2024-02-14T05:05:04;5.00;68.90
32502;DHT22;18952;52.516;13.460;2024-02-14T05:07:30;4.90;69.00
32502;DHT22;18952;52.516;13.460;2024-02-14T05:09:57;5.00;68.80
32502;DHT22;18952;52.516;13.460;2024-02-14T05:12:25;5.00;68.60
32502;DHT22;18952;52.516;13.460;2024-02-14T05:14:55;5.10;68.70
32502;DHT22;18952;52.516;13.460;2024-02-14T05:17:24;5.10;68.60
32502;DHT22;18952;52.516;13.460;2024-02-14T05:19:53;5.00;68.70
32502;DHT22;18952;52.516;13.460;2024-02-14T05:22:19;4.90;69.00
32502;DHT22;18952;52.516;13.460;2024-02-14T05:24:47;4.90;69.30
32502;DHT22;18952;52.516;13.460;2024-02-14T05:27:14;4.90;69.40
32502;DHT22;18952;52.516;13.460;2024-02-14T05:29:43;5.00;69.50
32502;DHT22;18952;52.516;13.460;2024-02-14T05:32:10;5.10;69.60
32502;DHT22;18952;52.516;13.460;2024-02-14T05:34:40;5.10;69.70
32502;DHT22;18952;52.516;13.460;2024-02-14T05:37:07;5.10;69.80
32502;DHT22;18952;52.516;13.460;2024-02-14T05:39:37;5.10;69.70
32502;DHT22;18952;52.516;13.460;2024-02-14T05:42:09;5.10;69.70
32502;DHT22;18952;52.516;13.460;2024-02-14T05:44:36;5.10;69.60
32502;DHT22;18952;52.516;13.460;2024-02-14T05:47:04;5.20;69.50
32502;DHT22;18952;52.516;13.460;2024-02-14T05:49:31;5.20;68.90
32502;DHT22;18952;52.516;13.460;2024-02-14T05:51:59;5.10;69.30
32502;DHT22;18952;52.516;13.460;2024-02-14T05:54:26;5.20;69.40
32502;DHT22;18952;52.516;13.460;2024-02-14T05:56:54;5.20;69.20
32502;DHT22;18952;52.516;13.460;2024-02-14T05:59:21;5.20;69.10
32502;DHT22;18952;52.516;13.460;2024-02-14T06:01:49;5.10;69.20
32502;DHT22;18952;52.516;13.460;2024-02-14T06:04:16;5.10;69.10
32502;DHT22;18952;52.516;13.460;2024-02-14T06:06:42;5.20;69.00
32502;DHT22;18952;52.516;13.460;2024-02-14T06:09:10;5.20;68.90
32502;DHT22;18952;52.516;13.460;2024-02-14T06:11:40;5.30;68.60
32502;DHT22;18952;52.516;13.460;2024-02-14T06:14:11;5.30;68.60
32502;DHT22;18952;52.516;13.460;2024-02-14T06:16:38;5.30;68.70
32502;DHT22;18952;52.516;13.460;2024-02-14T06:19:05;5.30;68.70
32502;DHT22;18952;52.516;13.460;2024-02-14T06:21:34;5.30;68.80
32502;DHT22;18952;52.516;13.460;2024-02-14T06:24:01;5.30;68.70
32502;DHT22;18952;52.516;13.460;2024-02-14T06:26:30;5.30;68.80
32502;DHT22;18952;52.516;13.460;2024-02-14T06:28:57;5.40;68.70
32502;DHT22;18952;52.516;13.460;2024-02-14T06:31:24;5.40;68.50
32502;DHT22;18952;52.516;13.460;2024-02-14T06:33:50;5.50;68.60
32502;DHT22;18952;52.516;13.460;2024-02-14T06:36:19;5.40;68.50
32502;DHT22;18952;52.516;13.460;2024-02-14T06:38:45;5.40;68.30
32502;DHT22;18952;52.516;13.460;2024-02-14T06:41:18;5.50;68.70
32502;DHT22;18952;52.516;13.460;2024-02-14T06:43:48;5.50;68.40
32502;DHT22;18952;52.516;13.460;2024-02-14T06:46:15;5.50;68.50
32502;DHT22;18952;52.516;13.460;2024-02-14T06:48:44;5.60;68.50
32502;DHT22;18952;52.516;13.460;2024-02-14T06:51:12;5.60;68.20
32502;DHT22;18952;52.516;13.460;2024-02-14T06:53:39;5.70;68.30
32502;DHT22;18952;52.516;13.460;2024-02-14T06:56:11;5.70;68.20
32502;DHT22;18952;52.516;13.460;2024-02-14T06:58:39;5.60;68.40
32502;DHT22;18952;52.516;13.460;2024-02-14T07:01:06;5.70;68.50
32502;DHT22;18952;52.516;13.460;2024-02-14T07:03:34;5.70;68.30
32502;DHT22;18952;52.516;13.460;2024-02-14T07:06:03;5.70;68.10
32502;DHT22;18952;52.516;13.460;2024-02-14T07:08:31;5.80;68.20
32502;DHT22;18952;52.516;13.460;2024-02-14T07:10:59;5.80;68.00
32502;DHT22;18952;52.516;13.460;2024-02-14T07:13:26;5.80;68.00
32502;DHT22;18952;52.516;13.460;2024-02-14T07:15:54;5.90;67.60
32502;DHT22;18952;52.516;13.460;2024-02-14T07:18:21;5.90;67.50
32502;DHT22;18952;52.516;13.460;2024-02-14T07:20:49;5.90;67.70
32502;DHT22;18952;52.516;13.460;2024-02-14T07:23:18;5.90;67.60
32502;DHT22;18952;52.516;13.460;2024-02-14T07:25:46;6.00;67.50
32502;DHT22;18952;52.516;13.460;2024-02-14T07:28:13;6.00;67.40
32502;DHT22;18952;52.516;13.460;2024-02-14T07:30:41;6.00;66.90
32502;DHT22;18952;52.516;13.460;2024-02-14T07:33:08;6.00;67.30
32502;DHT22;18952;52.516;13.460;2024-02-14T07:35:36;6.10;67.20
32502;DHT22;18952;52.516;13.460;2024-02-14T07:38:03;6.10;67.00
32502;DHT22;18952;52.516;13.460;2024-02-14T07:40:31;6.10;66.90
32502;DHT22;18952;52.516;13.460;2024-02-14T07:43:00;6.10;66.70
32502;DHT22;18952;52.516;13.460;2024-02-14T07:45:28;6.10;66.60
32502;DHT22;18952;52.516;13.460;2024-02-14T07:47:56;6.10;66.70
32502;DHT22;18952;52.516;13.460;2024-02-14T07:50:24;6.20;66.50
32502;DHT22;18952;52.516;13.460;2024-02-14T07:52:51;6.30;66.20
32502;DHT22;18952;52.516;13.460;2024-02-14T07:55:19;6.20;66.20
32502;DHT22;18952;52.516;13.460;2024-02-14T07:57:47;6.30;66.20
32502;DHT22;18952;52.516;13.460;2024-02-14T08:00:16;6.40;66.00
32502;DHT22;18952;52.516;13.460;2024-02-14T08:02:43;6.40;65.80
32502;DHT22;18952;52.516;13.460;2024-02-14T08:05:11;6.30;66.00
32502;DHT22;18952;52.516;13.460;2024-02-14T08:07:38;6.40;66.00
32502;DHT22;18952;52.516;13.460;2024-02-14T08:10:06;6.50;65.70
32502;DHT22;18952;52.516;13.460;2024-02-14T08:12:33;6.50;65.90
32502;DHT22;18952;52.516;13.460;2024-02-14T08:15:00;6.40;66.00
32502;DHT22;18952;52.516;13.460;2024-02-14T08:17:30;6.50;66.10
32502;DHT22;18952;52.516;13.460;2024-02-14T08:19:57;6.50;66.10
32502;DHT22;18952;52.516;13.460;2024-02-14T08:22:24;6.50;66.30
32502;DHT22;18952;52.516;13.460;2024-02-14T08:24:51;6.70;66.70
32502;DHT22;18952;52.516;13.460;2024-02-14T08:27:20;6.70;66.90
32502;DHT22;18952;52.516;13.460;2024-02-14T08:29:48;6.70;67.70
32502;DHT22;18952;52.516;13.460;2024-02-14T08:32:14;6.80;67.60
32502;DHT22;18952;52.516;13.460;2024-02-14T08:34:42;6.80;67.50
32502;DHT22;18952;52.516;13.460;2024-02-14T08:37:11;6.80;67.70
32502;DHT22;18952;52.516;13.460;2024-02-14T08:39:38;6.80;68.50
32502;DHT22;18952;52.516;13.460;2024-02-14T08:42:07;6.90;68.30
32502;DHT22;18952;52.516;13.460;2024-02-14T08:44:35;6.90;68.70
32502;DHT22;18952;52.516;13.460;2024-02-14T08:47:03;7.00;68.90
32502;DHT22;18952;52.516;13.460;2024-02-14T08:49:30;7.00;68.90
32502;DHT22;18952;52.516;13.460;2024-02-14T08:51:57;6.90;68.70
32502;DHT22;18952;52.516;13.460;2024-02-14T08:54:24;7.00;69.10
32502;DHT22;18952;52.516;13.460;2024-02-14T08:56:52;7.10;69.20
32502;DHT22;18952;52.516;13.460;2024-02-14T08:59:18;7.10;69.50
32502;DHT22;18952;52.516;13.460;2024-02-14T09:01:47;7.20;69.50
32502;DHT22;18952;52.516;13.460;2024-02-14T09:04:14;7.20;68.90
32502;DHT22;18952;52.516;13.460;2024-02-14T09:06:43;7.20;69.30
32502;DHT22;18952;52.516;13.460;2024-02-14T09:09:10;7.20;69.80
32502;DHT22;18952;52.516;13.460;2024-02-14T09:11:37;7.20;70.00
32502;DHT22;18952;52.516;13.460;2024-02-14T09:14:05;7.10;70.40
32502;DHT22;18952;52.516;13.460;2024-02-14T09:16:33;7.10;70.10
32502;DHT22;18952;52.516;13.460;2024-02-14T09:19:02;7.10;70.80
32502;DHT22;18952;52.516;13.460;2024-02-14T09:21:29;7.10;70.90
32502;DHT22;18952;52.516;13.460;2024-02-14T09:23:56;7.20;71.30
32502;DHT22;18952;52.516;13.460;2024-02-14T09:26:26;7.20;71.00
32502;DHT22;18952;52.516;13.460;2024-02-14T09:28:55;7.30;70.80
32502;DHT22;18952;52.516;13.460;2024-02-14T09:31:22;7.30;71.10
32502;DHT22;18952;52.516;13.460;2024-02-14T09:33:49;7.30;71.30
32502;DHT22;18952;52.516;13.460;2024-02-14T09:36:17;7.30;71.50
32502;DHT22;18952;52.516;13.460;2024-02-14T09:38:44;7.30;71.80
32502;DHT22;18952;52.516;13.460;2024-02-14T09:41:41;7.30;71.90
32502;DHT22;18952;52.516;13.460;2024-02-14T09:44:08;7.20;72.70
32502;DHT22;18952;52.516;13.460;2024-02-14T09:46:40;7.20;72.80
32502;DHT22;18952;52.516;13.460;2024-02-14T09:49:08;7.20;72.90
32502;DHT22;18952;52.516;13.460;2024-02-14T09:51:42;7.10;73.70
32502;DHT22;18952;52.516;13.460;2024-02-14T09:54:11;7.10;74.10
32502;DHT22;18952;52.516;13.460;2024-02-14T09:56:38;7.20;74.20
32502;DHT22;18952;52.516;13.460;2024-02-14T09:59:06;7.20;74.40
32502;DHT22;18952;52.516;13.460;2024-02-14T10:01:37;7.20;74.60
32502;DHT22;18952;52.516;13.460;2024-02-14T10:04:06;7.10;75.10
32502;DHT22;18952;52.516;13.460;2024-02-14T10:06:37;6.90;76.50
32502;DHT22;18952;52.516;13.460;2024-02-14T10:09:08;6.90;76.80
32502;DHT22;18952;52.516;13.460;2024-02-14T10:14:06;6.90;77.60
32502;DHT22;18952;52.516;13.460;2024-02-14T10:16:36;6.90;77.50
32502;DHT22;18952;52.516;13.460;2024-02-14T10:19:03;6.80;78.70
32502;DHT22;18952;52.516;13.460;2024-02-14T10:21:30;6.80;79.00
32502;DHT22;18952;52.516;13.460;2024-02-14T10:24:00;6.90;78.80
32502;DHT22;18952;52.516;13.460;2024-02-14T10:26:28;6.90;79.00
32502;DHT22;18952;52.516;13.460;2024-02-14T10:28:58;6.80;79.40
32502;DHT22;18952;52.516;13.460;2024-02-14T10:31:25;6.80;79.70
32502;DHT22;18952;52.516;13.460;2024-02-14T10:33:55;6.90;80.00
32502;DHT22;18952;52.516;13.460;2024-02-14T10:36:24;6.90;80.30
32502;DHT22;18952;52.516;13.460;2024-02-14T10:38:51;6.80;80.10
32502;DHT22;18952;52.516;13.460;2024-02-14T10:41:19;6.80;80.70
32502;DHT22;18952;52.516;13.460;2024-02-14T10:43:46;6.90;80.60
32502;DHT22;18952;52.516;13.460;2024-02-14T10:46:23;6.90;80.90
32502;DHT22;18952;52.516;13.460;2024-02-14T10:48:54;6.90;80.90
32502;DHT22;18952;52.516;13.460;2024-02-14T10:51:25;6.90;81.00
32502;DHT22;18952;52.516;13.460;2024-02-14T10:53:57;6.90;81.30
32502;DHT22;18952;52.516;13.460;2024-02-14T10:56:28;7.00;81.70
32502;DHT22;18952;52.516;13.460;2024-02-14T10:58:59;7.00;81.10
32502;DHT22;18952;52.516;13.460;2024-02-14T11:01:28;7.00;81.10
32502;DHT22;18952;52.516;13.460;2024-02-14T11:03:58;7.10;81.10
32502;DHT22;18952;52.516;13.460;2024-02-14T11:06:27;7.10;81.10
32502;DHT22;18952;52.516;13.460;2024-02-14T11:09:02;7.10;81.40
32502;DHT22;18952;52.516;13.460;2024-02-14T11:11:32;7.10;81.20
32502;DHT22;18952;52.516;13.460;2024-02-14T11:14:00;7.10;81.50
32502;DHT22;18952;52.516;13.460;2024-02-14T11:16:28;7.20;81.50
32502;DHT22;18952;52.516;13.460;2024-02-14T11:19:12;7.30;81.50
32502;DHT22;18952;52.516;13.460;2024-02-14T11:21:42;7.40;80.70
32502;DHT22;18952;52.516;13.460;2024-02-14T11:24:13;7.60;80.00
32502;DHT22;18952;52.516;13.460;2024-02-14T11:26:49;7.50;80.30
32502;DHT22;18952;52.516;13.460;2024-02-14T11:29:18;7.50;80.70
32502;DHT22;18952;52.516;13.460;2024-02-14T11:31:58;7.40;81.40
32502;DHT22;18952;52.516;13.460;2024-02-14T11:34:28;7.40;82.00
32502;DHT22;18952;52.516;13.460;2024-02-14T11:36:55;7.40;82.50
32502;DHT22;18952;52.516;13.460;2024-02-14T11:39:24;7.30;82.80
32502;DHT22;18952;52.516;13.460;2024-02-14T11:41:51;7.40;82.90
32502;DHT22;18952;52.516;13.460;2024-02-14T11:44:21;7.40;82.40
32502;DHT22;18952;52.516;13.460;2024-02-14T11:46:49;7.50;81.80
32502;DHT22;18952;52.516;13.460;2024-02-14T11:49:17;7.60;82.00
32502;DHT22;18952;52.516;13.460;2024-02-14T11:51:44;7.40;81.80
32502;DHT22;18952;52.516;13.460;2024-02-14T11:54:11;7.40;82.30
32502;DHT22;18952;52.516;13.460;2024-02-14T11:56:39;7.40;82.20
32502;DHT22;18952;52.516;13.460;2024-02-14T11:59:08;7.40;82.20
32502;DHT22;18952;52.516;13.460;2024-02-14T12:01:37;7.40;82.30
32502;DHT22;18952;52.516;13.460;2024-02-14T12:04:06;7.50;82.00
32502;DHT22;18952;52.516;13.460;2024-02-14T12:06:35;7.60;81.90
32502;DHT22;18952;52.516;13.460;2024-02-14T12:09:03;7.60;82.30
32502;DHT22;18952;52.516;13.460;2024-02-14T12:11:35;7.50;82.20
32502;DHT22;18952;52.516;13.460;2024-02-14T12:14:05;7.70;82.50
32502;DHT22;18952;52.516;13.460;2024-02-14T12:16:36;7.60;82.50
32502;DHT22;18952;52.516;13.460;2024-02-14T12:19:09;7.60;82.70
32502;DHT22;18952;52.516;13.460;2024-02-14T12:21:47;7.70;82.80
32502;DHT22;18952;52.516;13.460;2024-02-14T12:24:14;7.60;83.00
32502;DHT22;18952;52.516;13.460;2024-02-14T12:26:43;7.60;83.20
32502;DHT22;18952;52.516;13.460;2024-02-14T12:29:14;7.70;83.10
32502;DHT22;18952;52.516;13.460;2024-02-14T12:31:42;7.80;83.00
32502;DHT22;18952;52.516;13.460;2024-02-14T12:34:10;7.80;82.80
32502;DHT22;18952;52.516;13.460;2024-02-14T12:36:39;7.80;83.00
32502;DHT22;18952;52.516;13.460;2024-02-14T12:39:06;7.80;83.20
32502;DHT22;18952;52.516;13.460;2024-02-14T12:41:34;7.90;83.10
32502;DHT22;18952;52.516;13.460;2024-02-14T12:44:01;8.00;83.00
32502;DHT22;18952;52.516;13.460;2024-02-14T12:46:30;7.90;83.00
32502;DHT22;18952;52.516;13.460;2024-02-14T12:48:59;8.00;82.90
32502;DHT22;18952;52.516;13.460;2024-02-14T12:51:26;8.00;82.80
32502;DHT22;18952;52.516;13.460;2024-02-14T12:53:57;8.00;83.10
32502;DHT22;18952;52.516;13.460;2024-02-14T12:56:24;8.00;82.80
32502;DHT22;18952;52.516;13.460;2024-02-14T12:58:54;8.10;82.80
32502;DHT22;18952;52.516;13.460;2024-02-14T13:01:21;8.10;82.90
32502;DHT22;18952;52.516;13.460;2024-02-14T13:03:49;8.10;82.80
32502;DHT22;18952;52.516;13.460;2024-02-14T13:06:16;7.90;83.50
32502;DHT22;18952;52.516;13.460;2024-02-14T13:08:44;7.90;84.00
32502;DHT22;18952;52.516;13.460;2024-02-14T13:11:15;8.10;83.60
32502;DHT22;18952;52.516;13.460;2024-02-14T13:13:46;8.00;84.20
32502;DHT22;18952;52.516;13.460;2024-02-14T13:16:13;8.10;84.00
32502;DHT22;18952;52.516;13.460;2024-02-14T13:18:42;8.10;83.80
32502;DHT22;18952;52.516;13.460;2024-02-14T13:21:10;8.00;84.00
32502;DHT22;18952;52.516;13.460;2024-02-14T13:23:38;8.10;84.50
32502;DHT22;18952;52.516;13.460;2024-02-14T13:26:06;8.30;84.00
32502;DHT22;18952;52.516;13.460;2024-02-14T13:28:34;8.30;84.10
32502;DHT22;18952;52.516;13.460;2024-02-14T13:31:01;8.30;84.60
32502;DHT22;18952;52.516;13.460;2024-02-14T13:33:28;8.20;84.60
32502;DHT22;18952;52.516;13.460;2024-02-14T13:35:58;8.30;84.40
32502;DHT22;18952;52.516;13.460;2024-02-14T13:38:28;8.10;85.20
32502;DHT22;18952;52.516;13.460;2024-02-14T13:40:55;8.10;85.50
32502;DHT22;18952;52.516;13.460;2024-02-14T13:43:24;8.20;85.40
32502;DHT22;18952;52.516;13.460;2024-02-14T13:45:52;8.10;85.60
32502;DHT22;18952;52.516;13.460;2024-02-14T13:48:19;8.00;86.20
32502;DHT22;18952;52.516;13.460;2024-02-14T13:50:50;8.20;85.90
32502;DHT22;18952;52.516;13.460;2024-02-14T13:53:17;8.20;86.00
32502;DHT22;18952;52.516;13.460;2024-02-14T13:55:45;8.30;85.90
32502;DHT22;18952;52.516;13.460;2024-02-14T13:58:12;8.20;85.90
32502;DHT22;18952;52.516;13.460;2024-02-14T14:00:39;8.30;86.20
32502;DHT22;18952;52.516;13.460;2024-02-14T14:03:07;8.30;86.30
32502;DHT22;18952;52.516;13.460;2024-02-14T14:05:33;8.30;86.60
32502;DHT22;18952;52.516;13.460;2024-02-14T14:08:02;8.30;86.20
32502;DHT22;18952;52.516;13.460;2024-02-14T14:10:30;8.40;86.20
32502;DHT22;18952;52.516;13.460;2024-02-14T14:12:59;8.50;86.00
32502;DHT22;18952;52.516;13.460;2024-02-14T14:15:27;8.30;86.10
32502;DHT22;18952;52.516;13.460;2024-02-14T14:17:57;8.40;86.20
32502;DHT22;18952;52.516;13.460;2024-02-14T14:20:27;8.50;86.50
32502;DHT22;18952;52.516;13.460;2024-02-14T14:22:58;8.60;86.00
32502;DHT22;18952;52.516;13.460;2024-02-14T14:25:24;8.60;85.90
32502;DHT22;18952;52.516;13.460;2024-02-14T14:27:54;8.50;86.30
32502;DHT22;18952;52.516;13.460;2024-02-14T14:30:21;8.60;86.40
32502;DHT22;18952;52.516;13.460;2024-02-14T14:32:49;8.70;86.00
32502;DHT22;18952;52.516;13.460;2024-02-14T14:35:16;8.60;85.70
32502;DHT22;18952;52.516;13.460;2024-02-14T14:37:46;8.60;86.20
32502;DHT22;18952;52.516;13.460;2024-02-14T14:40:15;8.50;86.60
32502;DHT22;18952;52.516;13.460;2024-02-14T14:42:43;8.50;86.50
32502;DHT22;18952;52.516;13.460;2024-02-14T14:45:10;8.60;86.40
32502;DHT22;18952;52.516;13.460;2024-02-14T14:47:38;8.60;85.90
32502;DHT22;18952;52.516;13.460;2024-02-14T14:50:05;8.70;86.10
32502;DHT22;18952;52.516;13.460;2024-02-14T14:52:34;8.80;85.70
32502;DHT22;18952;52.516;13.460;2024-02-14T14:55:04;8.70;85.30
32502;DHT22;18952;52.516;13.460;2024-02-14T14:57:31;8.70;85.70
32502;DHT22;18952;52.516;13.460;2024-02-14T14:59:59;8.80;85.40
32502;DHT22;18952;52.516;13.460;2024-02-14T15:02:27;8.70;85.70
32502;DHT22;18952;52.516;13.460;2024-02-14T15:04:58;8.70;85.80
32502;DHT22;18952;52.516;13.460;2024-02-14T15:07:25;8.80;85.80
32502;DHT22;18952;52.516;13.460;2024-02-14T15:09:54;8.90;85.50
32502;DHT22;18952;52.516;13.460;2024-02-14T15:12:21;8.90;85.60
32502;DHT22;18952;52.516;13.460;2024-02-14T15:14:49;8.90;85.00
32502;DHT22;18952;52.516;13.460;2024-02-14T15:17:18;8.90;85.50
32502;DHT22;18952;52.516;13.460;2024-02-14T15:19:47;8.90;85.20
32502;DHT22;18952;52.516;13.460;2024-02-14T15:22:15;8.80;85.40
32502;DHT22;18952;52.516;13.460;2024-02-14T15:24:44;8.90;85.20
32502;DHT22;18952;52.516;13.460;2024-02-14T15:27:13;8.90;85.30
32502;DHT22;18952;52.516;13.460;2024-02-14T15:29:41;8.90;85.40
32502;DHT22;18952;52.516;13.460;2024-02-14T15:32:10;9.00;85.00
32502;DHT22;18952;52.516;13.460;2024-02-14T15:34:37;9.00;84.80
32502;DHT22;18952;52.516;13.460;2024-02-14T15:37:05;9.00;85.10
32502;DHT22;18952;52.516;13.460;2024-02-14T15:39:32;9.10;84.90